createdAt,value
2022-10-05T00:01:19.836Z,99.90
2022-10-05T00:03:50.769Z,99.90
2022-10-05T00:06:22.033Z,99.90
2022-10-05T00:08:55.306Z,99.90
2022-10-05T00:11:26.417Z,99.90
2022-10-05T00:13:57.100Z,99.90
2022-10-05T00:16:28.204Z,99.90
2022-10-05T00:18:58.972Z,99.90
2022-10-05T00:21:30.327Z,99.90
2022-10-05T00:24:03.765Z,99.90
2022-10-05T00:26:36.357Z,99.90
2022-10-05T00:29:20.849Z,99.90
2022-10-05T00:31:52.389Z,99.90
2022-10-05T00:34:23.189Z,99.90
2022-10-05T00:36:54.183Z,99.90
2022-10-05T00:39:27.548Z,99.90
2022-10-05T00:42:07.116Z,99.90
2022-10-05T00:44:39.793Z,99.90
2022-10-05T00:47:17.691Z,99.90
2022-10-05T00:49:56.960Z,99.90
2022-10-05T00:52:34.601Z,99.90
2022-10-05T00:55:10.967Z,99.90
2022-10-05T00:57:47.788Z,99.90
2022-10-05T01:00:20.252Z,99.90
2022-10-05T01:02:54.908Z,99.90
2022-10-05T01:05:35.917Z,99.90
2022-10-05T01:08:10.013Z,99.90
2022-10-05T01:10:47.129Z,99.90
2022-10-05T01:13:21.955Z,99.90
2022-10-05T01:15:54.905Z,99.90
2022-10-05T01:18:30.767Z,99.90
2022-10-05T01:21:05.111Z,99.90
2022-10-05T01:23:53.554Z,99.90
2022-10-05T01:26:41.328Z,99.90
2022-10-05T01:29:19.489Z,99.90
2022-10-05T01:31:54.412Z,99.90
2022-10-05T01:34:29.964Z,99.90
2022-10-05T01:37:06.540Z,99.90
2022-10-05T01:39:39.765Z,99.90
2022-10-05T01:42:16.426Z,99.90
2022-10-05T01:44:54.592Z,99.90
2022-10-05T01:47:30.612Z,99.90
2022-10-05T01:50:04.777Z,99.90
2022-10-05T01:52:40.170Z,99.90
2022-10-05T01:55:17.128Z,99.90
2022-10-05T01:57:57.225Z,99.90
2022-10-05T02:00:31.509Z,99.90
2022-10-05T02:03:06.002Z,99.90
2022-10-05T02:05:40.654Z,99.90
2022-10-05T02:08:15.061Z,99.90
2022-10-05T02:10:49.464Z,99.90
2022-10-05T02:13:24.229Z,99.90
2022-10-05T02:16:01.279Z,99.90
2022-10-05T02:18:33.367Z,99.90
2022-10-05T02:21:08.548Z,99.90
2022-10-05T02:23:40.868Z,99.90
2022-10-05T02:26:13.952Z,99.90
2022-10-05T02:28:46.876Z,99.90
2022-10-05T02:31:22.667Z,99.90
2022-10-05T02:33:53.526Z,99.90
2022-10-05T02:36:27.203Z,99.90
2022-10-05T02:39:02.905Z,99.90
2022-10-05T02:41:39.474Z,99.90
2022-10-05T02:44:16.873Z,99.90
2022-10-05T02:46:57.158Z,99.90
2022-10-05T02:49:32.069Z,99.90
2022-10-05T02:52:09.477Z,99.90
2022-10-05T02:54:45.525Z,99.90
2022-10-05T02:57:19.622Z,99.90
2022-10-05T02:59:52.776Z,99.90
2022-10-05T03:02:29.176Z,99.90
2022-10-05T03:05:06.560Z,99.90
2022-10-05T03:07:42.327Z,99.90
2022-10-05T03:10:15.402Z,99.90
2022-10-05T03:12:50.889Z,99.90
2022-10-05T03:15:39.722Z,99.90
2022-10-05T03:18:19.259Z,99.90
2022-10-05T03:20:52.871Z,99.90
2022-10-05T03:23:27.234Z,99.90
2022-10-05T03:26:06.276Z,99.90
2022-10-05T03:28:42.454Z,99.90
2022-10-05T03:31:18.424Z,99.90
2022-10-05T03:33:58.129Z,99.90
2022-10-05T03:36:31.056Z,99.90
2022-10-05T03:39:06.057Z,99.90
2022-10-05T03:41:39.466Z,99.90
2022-10-05T03:44:17.189Z,99.90
2022-10-05T03:46:53.568Z,99.90
2022-10-05T03:49:35.055Z,99.90
2022-10-05T03:52:08.792Z,99.90
2022-10-05T03:54:42.721Z,99.90
2022-10-05T03:57:16.449Z,99.90
2022-10-05T03:59:52.256Z,99.90
2022-10-05T04:02:26.059Z,99.90
2022-10-05T04:05:03.304Z,99.90
2022-10-05T04:07:39.101Z,99.90
2022-10-05T04:10:16.246Z,99.90
2022-10-05T04:12:49.084Z,99.90
2022-10-05T04:15:26.440Z,99.90
2022-10-05T04:18:00.964Z,99.90
2022-10-05T04:20:36.140Z,99.90
2022-10-05T04:23:10.846Z,99.90
2022-10-05T04:25:44.298Z,99.90
2022-10-05T04:28:19.067Z,99.90
2022-10-05T04:30:52.266Z,99.90
2022-10-05T04:33:24.066Z,99.90
2022-10-05T04:36:04.751Z,99.90
2022-10-05T04:38:53.636Z,99.90
2022-10-05T04:41:37.547Z,99.90
2022-10-05T04:44:16.742Z,99.90
2022-10-05T04:46:57.315Z,99.90
2022-10-05T04:49:35.439Z,99.90
2022-10-05T04:52:13.916Z,99.90
2022-10-05T04:54:50.283Z,99.90
2022-10-05T04:57:26.621Z,99.90
2022-10-05T05:00:08.856Z,99.90
2022-10-05T05:02:45.280Z,99.90
2022-10-05T05:05:24.066Z,99.90
2022-10-05T05:08:05.001Z,99.90
2022-10-05T05:10:45.509Z,99.90
2022-10-05T05:13:27.929Z,99.90
2022-10-05T05:16:03.065Z,99.90
2022-10-05T05:18:49.062Z,99.90
2022-10-05T05:21:25.148Z,99.90
2022-10-05T05:24:01.418Z,99.90
2022-10-05T05:26:39.099Z,99.90
2022-10-05T05:29:15.502Z,99.90
2022-10-05T05:31:48.682Z,99.90
2022-10-05T05:34:30.828Z,99.90
2022-10-05T05:37:04.183Z,99.90
2022-10-05T05:39:44.826Z,99.90
2022-10-05T05:42:21.695Z,99.90
2022-10-05T05:44:54.888Z,99.90
2022-10-05T05:47:28.809Z,99.90
2022-10-05T05:50:07.949Z,99.90
2022-10-05T05:52:43.439Z,99.90
2022-10-05T05:55:23.562Z,99.90
2022-10-05T05:58:00.241Z,99.90
2022-10-05T06:00:33.110Z,99.90
2022-10-05T06:03:09.860Z,99.90
2022-10-05T06:05:44.246Z,99.90
2022-10-05T06:08:19.201Z,99.90
2022-10-05T06:11:00.550Z,99.90
2022-10-05T06:13:33.444Z,99.90
2022-10-05T06:16:10.890Z,99.90
2022-10-05T06:18:44.722Z,99.90
2022-10-05T06:21:21.794Z,99.90
2022-10-05T06:23:55.347Z,99.90
2022-10-05T06:26:33.923Z,99.90
2022-10-05T06:29:06.662Z,99.90
2022-10-05T06:31:45.938Z,99.90
2022-10-05T06:34:24.297Z,99.90
2022-10-05T06:36:58.705Z,99.90
2022-10-05T06:39:35.376Z,99.90
2022-10-05T06:42:20.263Z,99.90
2022-10-05T06:45:10.231Z,99.90
2022-10-05T06:47:54.195Z,99.90
2022-10-05T06:50:57.663Z,99.90
2022-10-05T06:54:01.592Z,99.90
2022-10-05T06:56:35.971Z,99.90
2022-10-05T06:59:12.650Z,99.90
2022-10-05T07:01:49.728Z,99.90
2022-10-05T07:04:37.166Z,99.90
2022-10-05T07:07:12.302Z,99.90
2022-10-05T07:09:48.628Z,99.90
2022-10-05T07:12:27.301Z,99.90
2022-10-05T07:15:05.312Z,99.90
2022-10-05T07:17:45.767Z,99.90
2022-10-05T07:20:20.275Z,99.90
2022-10-05T07:22:58.402Z,99.90
2022-10-05T07:25:32.189Z,99.90
2022-10-05T07:28:04.334Z,99.90
2022-10-05T07:30:44.478Z,99.90
2022-10-05T07:33:16.979Z,99.90
2022-10-05T07:36:07.033Z,99.90
2022-10-05T07:38:40.776Z,99.90
2022-10-05T07:41:16.857Z,99.90
2022-10-05T07:44:02.090Z,99.90
2022-10-05T07:46:47.162Z,99.90
2022-10-05T07:49:20.715Z,99.90
2022-10-05T07:51:54.027Z,99.90
2022-10-05T07:54:26.796Z,99.90
2022-10-05T07:57:01.598Z,99.90
2022-10-05T07:59:34.606Z,99.90
2022-10-05T08:02:15.144Z,99.90
2022-10-05T08:04:50.132Z,99.90
2022-10-05T08:07:21.431Z,99.90
2022-10-05T08:09:56.373Z,99.90
2022-10-05T08:12:34.038Z,99.90
2022-10-05T08:15:09.037Z,99.90
2022-10-05T08:17:49.657Z,99.90
2022-10-05T08:20:30.239Z,99.90
2022-10-05T08:23:04.570Z,99.90
2022-10-05T08:25:42.333Z,99.90
2022-10-05T08:28:14.974Z,99.90
2022-10-05T08:30:54.686Z,99.90
2022-10-05T08:33:29.592Z,99.90
2022-10-05T08:36:05.125Z,99.90
2022-10-05T08:38:36.432Z,99.90
2022-10-05T08:41:29.128Z,99.90
2022-10-05T08:44:27.329Z,99.90
2022-10-05T08:47:13.810Z,99.90
2022-10-05T08:50:08.850Z,99.90
2022-10-05T08:52:46.033Z,99.10
2022-10-05T08:55:26.126Z,99.90
2022-10-05T08:58:03.491Z,99.90
2022-10-05T09:00:39.001Z,99.90
2022-10-05T09:03:20.767Z,97.40
2022-10-05T09:06:14.703Z,96.60
2022-10-05T09:08:54.342Z,96.30
2022-10-05T09:11:28.665Z,97.50
2022-10-05T09:14:08.242Z,98.90
2022-10-05T09:16:50.391Z,95.80
2022-10-05T09:19:37.059Z,99.90
2022-10-05T09:22:16.728Z,97.10
2022-10-05T09:24:57.095Z,97.50
2022-10-05T09:27:36.729Z,99.90
2022-10-05T09:30:18.779Z,99.90
2022-10-05T09:33:02.787Z,98.70
2022-10-05T09:35:41.053Z,99.90
2022-10-05T09:38:27.962Z,99.00
2022-10-05T09:41:14.994Z,98.90
2022-10-05T09:44:03.285Z,99.30
2022-10-05T09:46:48.756Z,95.70
2022-10-05T09:49:26.775Z,99.00
2022-10-05T09:52:19.223Z,97.70
2022-10-05T09:55:06.812Z,97.60
2022-10-05T09:57:50.905Z,98.80
2022-10-05T10:00:30.065Z,95.50
2022-10-05T10:03:13.528Z,94.70
2022-10-05T10:05:59.126Z,95.80
2022-10-05T10:08:38.565Z,93.90
2022-10-05T10:11:13.364Z,96.80
2022-10-05T10:14:00.263Z,95.10
2022-10-05T10:16:46.305Z,96.20
2022-10-05T10:19:31.769Z,94.00
2022-10-05T10:22:29.456Z,94.30
2022-10-05T10:25:19.051Z,93.20
2022-10-05T10:28:04.867Z,92.20
2022-10-05T10:30:51.951Z,94.50
2022-10-05T10:33:32.622Z,91.90
2022-10-05T10:36:07.075Z,92.70
2022-10-05T10:38:52.235Z,94.30
2022-10-05T10:41:43.888Z,95.00
2022-10-05T10:44:30.244Z,92.00
2022-10-05T10:47:11.585Z,94.10
2022-10-05T10:49:53.068Z,93.30
2022-10-05T10:52:31.505Z,93.90
2022-10-05T10:55:14.073Z,95.00
2022-10-05T10:57:51.646Z,93.70
2022-10-05T11:00:40.545Z,93.80
2022-10-05T11:03:35.161Z,93.80
2022-10-05T11:06:20.864Z,93.00
2022-10-05T11:09:04.321Z,95.10
2022-10-05T11:11:51.403Z,95.10
2022-10-05T11:14:35.632Z,98.50
2022-10-05T11:17:17.019Z,96.80
2022-10-05T11:20:09.744Z,92.90
2022-10-05T11:22:55.697Z,95.50
2022-10-05T11:25:44.400Z,95.90
2022-10-05T11:28:27.675Z,93.80
2022-10-05T11:31:25.627Z,97.20
2022-10-05T11:34:11.701Z,94.80
2022-10-05T11:36:56.676Z,97.90
2022-10-05T11:39:42.564Z,94.50
2022-10-05T11:42:26.438Z,96.70
2022-10-05T11:45:15.705Z,94.70
2022-10-05T11:47:54.645Z,95.90
2022-10-05T11:50:27.833Z,97.10
2022-10-05T11:53:01.303Z,98.20
2022-10-05T11:55:34.546Z,95.50
2022-10-05T11:58:08.263Z,94.10
2022-10-05T12:00:43.295Z,94.90
2022-10-05T12:03:24.799Z,93.70
2022-10-05T12:06:02.238Z,92.90
2022-10-05T12:08:38.373Z,94.90
2022-10-05T12:11:12.585Z,93.60
2022-10-05T12:13:45.007Z,94.30
2022-10-05T12:16:19.646Z,94.00
2022-10-05T12:18:57.736Z,93.60
2022-10-05T12:21:34.917Z,93.20
2022-10-05T12:24:07.948Z,92.10
2022-10-05T12:26:40.830Z,92.30
2022-10-05T12:29:16.190Z,95.50
2022-10-05T12:31:52.192Z,95.80
2022-10-05T12:34:29.753Z,93.30
2022-10-05T12:37:05.152Z,95.40
2022-10-05T12:39:41.603Z,94.90
2022-10-05T12:42:20.432Z,94.20
2022-10-05T12:45:02.462Z,94.00
2022-10-05T12:47:37.290Z,93.00
2022-10-05T12:50:22.899Z,92.30
2022-10-05T12:53:00.650Z,94.50
2022-10-05T12:55:34.936Z,91.90
2022-10-05T12:58:13.818Z,88.60
2022-10-05T13:00:51.898Z,88.40
2022-10-05T13:03:27.375Z,93.40
2022-10-05T13:06:04.206Z,93.30
2022-10-05T13:08:40.092Z,93.50
2022-10-05T13:11:15.201Z,92.90
2022-10-05T13:13:51.093Z,93.60
2022-10-05T13:16:25.710Z,91.90
2022-10-05T13:19:07.448Z,92.50
2022-10-05T13:21:56.394Z,90.40
2022-10-05T13:24:29.754Z,92.00
2022-10-05T13:27:04.106Z,94.60
2022-10-05T13:29:37.958Z,94.00
2022-10-05T13:32:12.817Z,94.00
2022-10-05T13:34:49.873Z,92.50
2022-10-05T13:37:26.263Z,92.30
2022-10-05T13:40:01.748Z,92.80
2022-10-05T13:42:36.895Z,92.60
2022-10-05T13:45:16.859Z,92.30
2022-10-05T13:47:52.928Z,92.80
2022-10-05T13:50:26.598Z,94.30
2022-10-05T13:53:05.303Z,94.20
2022-10-05T13:55:40.209Z,95.80
2022-10-05T13:58:16.725Z,97.20
2022-10-05T14:00:50.315Z,94.40
2022-10-05T14:03:32.595Z,93.70
2022-10-05T14:06:04.528Z,95.10
2022-10-05T14:08:47.302Z,93.70
2022-10-05T14:11:29.086Z,94.70
2022-10-05T14:14:05.496Z,94.70
2022-10-05T14:16:36.779Z,94.10
2022-10-05T14:19:20.243Z,94.20
2022-10-05T14:21:52.584Z,94.70
2022-10-05T14:24:44.281Z,94.90
2022-10-05T14:27:24.270Z,94.10
2022-10-05T14:30:00.652Z,96.10
2022-10-05T14:32:34.628Z,94.90
2022-10-05T14:35:16.571Z,94.30
2022-10-05T14:37:51.941Z,95.60
2022-10-05T14:40:31.168Z,93.90
2022-10-05T14:43:04.589Z,94.80
2022-10-05T14:45:35.703Z,95.40
2022-10-05T14:48:12.475Z,96.10
2022-10-05T14:50:57.384Z,96.90
2022-10-05T14:53:29.095Z,94.20
2022-10-05T14:56:07.184Z,94.60
2022-10-05T14:58:46.630Z,94.10
2022-10-05T15:01:19.501Z,93.90
2022-10-05T15:03:53.987Z,94.80
2022-10-05T15:06:30.029Z,95.40
2022-10-05T15:09:16.994Z,97.40
2022-10-05T15:11:53.521Z,95.50
2022-10-05T15:14:25.913Z,95.00
2022-10-05T15:16:57.192Z,95.40
2022-10-05T15:19:31.433Z,96.40
2022-10-05T15:22:10.987Z,96.60
2022-10-05T15:24:46.057Z,96.80
2022-10-05T15:27:26.794Z,97.70
2022-10-05T15:30:07.956Z,97.60
2022-10-05T15:32:44.913Z,97.90
2022-10-05T15:35:36.223Z,97.90
2022-10-05T15:38:09.650Z,98.60
2022-10-05T15:40:43.837Z,98.50
2022-10-05T15:43:20.442Z,98.90
2022-10-05T15:46:01.264Z,99.80
2022-10-05T15:48:39.507Z,99.00
2022-10-05T15:51:16.444Z,99.50
2022-10-05T15:53:49.659Z,99.90
2022-10-05T15:56:23.600Z,99.90
2022-10-05T15:59:00.571Z,99.90
2022-10-05T16:01:42.839Z,99.90
2022-10-05T16:04:15.985Z,99.90
2022-10-05T16:07:04.620Z,99.90
2022-10-05T16:09:59.338Z,99.90
2022-10-05T16:12:42.869Z,99.90
2022-10-05T16:15:26.428Z,99.90
2022-10-05T16:18:04.797Z,99.90
2022-10-05T16:20:41.213Z,99.90
2022-10-05T16:23:17.887Z,99.90
2022-10-05T16:25:53.357Z,99.90
2022-10-05T16:28:30.723Z,99.70
2022-10-05T16:31:08.945Z,99.90
2022-10-05T16:36:53.462Z,99.90
2022-10-05T16:39:29.271Z,99.90
2022-10-05T16:42:02.988Z,99.90
2022-10-05T16:44:40.344Z,99.90
2022-10-05T16:47:27.797Z,99.90
2022-10-05T16:50:02.285Z,99.90
2022-10-05T16:52:34.420Z,99.90
2022-10-05T16:55:07.256Z,99.90
2022-10-05T16:57:39.722Z,99.90
2022-10-05T17:00:20.552Z,99.90
2022-10-05T17:03:04.530Z,99.90
2022-10-05T17:05:42.010Z,99.90
2022-10-05T17:08:26.709Z,99.90
2022-10-05T17:11:07.176Z,99.90
2022-10-05T17:13:52.312Z,99.90
2022-10-05T17:16:27.000Z,99.90
2022-10-05T17:19:19.373Z,99.90
2022-10-05T17:22:00.708Z,99.90
2022-10-05T17:24:35.675Z,99.90
2022-10-05T17:27:18.629Z,99.90
2022-10-05T17:29:51.990Z,99.90
2022-10-05T17:32:39.673Z,99.90
2022-10-05T17:35:19.177Z,99.90
2022-10-05T17:38:14.449Z,99.90
2022-10-05T17:41:06.377Z,99.90
2022-10-05T17:43:37.879Z,99.90
2022-10-05T17:46:09.237Z,99.90
2022-10-05T17:49:02.568Z,99.90
2022-10-05T17:52:00.607Z,99.90
2022-10-05T17:54:48.146Z,99.90
2022-10-05T17:57:22.200Z,99.90
2022-10-05T18:00:01.987Z,99.90
2022-10-05T18:02:43.898Z,99.90
2022-10-05T18:05:27.859Z,99.90
2022-10-05T18:08:13.584Z,99.90
2022-10-05T18:11:07.967Z,99.90
2022-10-05T18:13:41.838Z,99.90
2022-10-05T18:16:13.219Z,99.90
2022-10-05T18:18:58.965Z,99.90
2022-10-05T18:21:32.935Z,99.90
2022-10-05T18:24:05.337Z,99.90
2022-10-05T18:26:43.842Z,99.90
2022-10-05T18:29:41.355Z,99.90
2022-10-05T18:32:18.883Z,99.90
2022-10-05T18:34:57.669Z,99.90
2022-10-05T18:37:34.590Z,99.90
2022-10-05T18:40:17.898Z,99.90
2022-10-05T18:42:55.040Z,99.90
2022-10-05T18:45:28.533Z,99.90
2022-10-05T18:48:07.698Z,99.90
2022-10-05T18:50:43.191Z,99.90
2022-10-05T18:53:17.805Z,99.90
2022-10-05T18:55:52.272Z,99.90
2022-10-05T18:58:28.964Z,99.90
2022-10-05T19:01:20.970Z,99.90
2022-10-05T19:03:57.923Z,99.90
2022-10-05T19:06:31.513Z,99.90
2022-10-05T19:09:07.548Z,99.90
2022-10-05T19:11:41.415Z,99.90
2022-10-05T19:14:20.599Z,99.90
2022-10-05T19:16:57.447Z,99.90
2022-10-05T19:19:38.667Z,99.90
2022-10-05T19:22:13.442Z,99.90
2022-10-05T19:24:50.361Z,99.90
2022-10-05T19:27:27.367Z,99.90
2022-10-05T19:30:06.390Z,99.90
2022-10-05T19:32:42.246Z,99.90
2022-10-05T19:35:21.585Z,99.90
2022-10-05T19:37:57.743Z,99.90
2022-10-05T19:40:31.305Z,99.90
2022-10-05T19:43:19.013Z,99.90
2022-10-05T19:45:59.153Z,99.90
2022-10-05T19:48:35.642Z,99.90
2022-10-05T19:51:13.957Z,99.90
2022-10-05T19:53:50.239Z,99.90
2022-10-05T19:56:23.867Z,99.90
2022-10-05T19:58:57.707Z,99.90
2022-10-05T20:01:35.547Z,99.90
2022-10-05T20:04:07.171Z,99.90
2022-10-05T20:06:39.779Z,99.90
2022-10-05T20:09:21.981Z,99.90
2022-10-05T20:11:54.265Z,99.90
2022-10-05T20:14:32.156Z,99.90
2022-10-05T20:17:30.910Z,99.90
2022-10-05T20:20:25.477Z,99.90
2022-10-05T20:23:19.190Z,99.90
2022-10-05T20:26:10.638Z,99.90
2022-10-05T20:28:41.956Z,99.90
2022-10-05T20:31:14.711Z,99.90
2022-10-05T20:33:46.439Z,99.90
2022-10-05T20:36:17.316Z,99.90
2022-10-05T20:38:50.981Z,99.90
2022-10-05T20:41:21.701Z,99.90
2022-10-05T20:43:52.715Z,99.90
2022-10-05T20:46:23.451Z,99.90
2022-10-05T20:48:54.617Z,99.90
2022-10-05T20:51:28.446Z,99.90
2022-10-05T20:54:02.219Z,99.90
2022-10-05T20:56:33.173Z,99.90
2022-10-05T20:59:04.149Z,99.90
2022-10-05T21:01:34.883Z,99.90
2022-10-05T21:04:08.667Z,99.90
2022-10-05T21:06:39.649Z,99.90
2022-10-05T21:09:15.089Z,99.90
2022-10-05T21:11:45.964Z,99.90
2022-10-05T21:14:17.246Z,99.90
2022-10-05T21:16:47.945Z,99.90
2022-10-05T21:19:19.324Z,99.90
2022-10-05T21:21:50.104Z,99.90
2022-10-05T21:24:23.898Z,99.90
2022-10-05T21:26:57.774Z,99.90
2022-10-05T21:29:28.888Z,99.90
2022-10-05T21:31:59.814Z,99.90
2022-10-05T21:34:31.417Z,99.90
2022-10-05T21:37:02.117Z,99.90
2022-10-05T21:39:36.863Z,99.90
2022-10-05T21:42:07.724Z,99.90
2022-10-05T21:44:38.750Z,99.90
2022-10-05T21:47:09.745Z,99.90
2022-10-05T21:49:40.825Z,99.90
2022-10-05T21:52:11.507Z,99.90
2022-10-05T21:54:45.065Z,99.90
2022-10-05T21:57:15.802Z,99.90
2022-10-05T21:59:46.856Z,99.90
2022-10-05T22:02:17.634Z,99.90
2022-10-05T22:04:48.673Z,99.90
2022-10-05T22:07:20.896Z,99.90
2022-10-05T22:09:54.607Z,99.90
2022-10-05T22:12:26.550Z,99.90
2022-10-05T22:14:57.657Z,99.90
2022-10-05T22:17:31.062Z,99.90
2022-10-05T22:20:02.297Z,99.90
2022-10-05T22:22:33.845Z,99.90
2022-10-05T22:25:07.813Z,99.90
2022-10-05T22:27:38.680Z,99.90
2022-10-05T22:30:10.704Z,99.90
2022-10-05T22:32:41.394Z,99.90
2022-10-05T22:35:12.513Z,99.90
2022-10-05T22:37:43.244Z,99.90
2022-10-05T22:40:16.901Z,99.90
2022-10-05T22:42:47.570Z,99.90
2022-10-05T22:45:18.573Z,99.90
2022-10-05T22:47:49.325Z,99.90
2022-10-05T22:50:20.448Z,99.90
2022-10-05T22:52:52.349Z,99.90
2022-10-05T22:55:25.977Z,99.90
2022-10-05T22:57:56.599Z,99.90
2022-10-05T23:00:40.329Z,99.90
2022-10-05T23:03:18.146Z,99.90
2022-10-05T23:05:49.163Z,99.90
2022-10-05T23:08:19.927Z,99.90
2022-10-05T23:10:53.500Z,99.90
2022-10-05T23:13:24.360Z,99.90
2022-10-05T23:15:55.498Z,99.90
2022-10-05T23:18:26.658Z,99.90
2022-10-05T23:20:58.041Z,99.90
2022-10-05T23:23:28.804Z,99.90
2022-10-05T23:26:04.845Z,99.90
2022-10-05T23:28:35.665Z,99.90
2022-10-05T23:31:08.167Z,99.90
2022-10-05T23:33:38.916Z,99.90
2022-10-05T23:36:11.070Z,99.90
2022-10-05T23:38:41.699Z,99.90
2022-10-05T23:41:16.173Z,99.90
2022-10-05T23:43:46.885Z,99.90
2022-10-05T23:46:18.048Z,99.90
2022-10-05T23:48:50.494Z,99.90
2022-10-05T23:51:21.585Z,99.90
2022-10-05T23:53:52.296Z,99.90
2022-10-05T23:56:25.936Z,99.90
2022-10-05T23:58:56.704Z,99.90
